Calimesa, CA (92320)

10:00 PM PDT on August 27, 2014 (GMT -0700)
MesoWest HINDA1 CA US UPR | Change Station
CLOSE
Current Station
Personal Weather Station
Location: Calimesa, CA
Elevation: 2250 ft
Nearby Weather Stations

Elev 2250 ft 33.94 °N, 117.05 °W | Updated 1 hour ago

Clear
Clear
82 °F
Feels Like 80 °F
N
1
Wind Variable Wind from SW
Gusts 1.0 mph

Today
High -- | Low -- °F
--% Chance of Precip.
Yesterday
High -- | Low -- °F
Precip. -- in
6:18 AM 7:20 PM
Waxing Crescent, 6% visible
Pressure 30.02 in
Visibility 10.0 miles
Clouds Clear
Heat Index 80 °F
Dew Point Not available.
Humidity Not available.
Rainfall -999.00 in
Snow Depth Not available.
UV 0 out of 12
Pollen 7.50 out of 12
Ozone Good
Flu Activity Not available.
METAR KRIV 280458Z AUTO 33005KT 10SM CLR 26/11 A3006 RMK AO2 SLP164 T02600107

More Conditions Fewer Conditions

Pressure 30.02 in
Visibility 10.0 miles
Clouds Clear
Heat Index 80 °F
Dew Point Not available.
Humidity Not available.
Rainfall -999.00 in
Snow Depth Not available.
UV 0 out of 12
Pollen 7.50 out of 12
Ozone Good
Flu Activity Not available.
METAR KRIV 280458Z AUTO 33005KT 10SM CLR 26/11 A3006 RMK AO2 SLP164 T02600107

More Conditions Fewer Conditions

10-Day Weather Forecast

Almanac

Astronomy

Aug. 27, 2014 Rise Set
Actual Time 6:18 AM PDT 7:20 PM PDT
Civil Twilight 5:52 AM PDT 7:46 PM PDT
Nautical Twilight 5:22 AM PDT 8:16 PM PDT
Astronomical Twilight 4:50 AM PDT 8:47 PM PDT
Moon 8:11 AM PDT (8/27) 8:23 PM PDT (8/27)
Length of Visible Light 13h 53m
Length of Day
13h 01m
Tomorrow will be 1m 59s shorter.
Waxing Crescent, 6% of the Moon is Illuminated
Aug 28
Waxing Crescent
Sep 2
First Quarter
Sep 8
Full
Sep 15
Last Quarter
Sep 24
New

Yesterday's Extremes

State Highs State Lows

Community

WunderPhotos

Upload Photos

1,747,908 photos uploaded!

Nearby

Air Quality

  Air Quality AQ Index Pollutant
Yesterday Good
OZONE
Current Good
OZONE
Thursday Good
PM10
Thursday Moderate
OZONE
Thursday Good
CO
Thursday Good
NO2

Snow Depth

Station Depth Elevation
Leavitt Lake 0 in 9400 ft
Leavitt Meadows 1 in 7200 ft
Summit Meadow 0 in 9122 ft
Monitor Pass 0 in 8350 ft
Blue Lakes 0 in 8000 ft

Earthquake Activity

City Distance Mag. Time & Date
San Fernando, California 80 miles 2.5 4:57 AM PDT
2014-08-26
Progreso, Mexico 125 miles 2.6 10:55 PM PDT
2014-08-25
Minimum magnitude displayed is 2.5.

Coastal Water Temperatures

Place Temperature
No Stations Reporting

Nearby Weather Stations